Alto Springs, Texas
Current Conditions -  °F | °C
As of 5:55 AM on Saturday 01 Nov 2014 (Local Time) from KLXY Reporting Station
Clear Clear  
Wind Chill: 37°   Ceiling: Unl
Heat Index: 40°   Visibility: 10mi
Dew Point: 36°   Wind: 5mph
Humidity: 86%   Direction: 20°NNE
Pressure: 30.36"   Gusts: NA
Location:  31.3327°N, 96.6013°W
Report Text: KLXY 011055Z AUTO 02004KT 10SM CLR 05/02 A3036 RMK AO2 T00450023
Loading
Personal Weather Stations






























Interactive Weather Map
Tropical Storm Tracking
New forecast layout! Learn more

10-Day Weather Forecast

Advertisements
Track Severe Weather on mobile